• Join FlightAware (Why Join?)
  • Login
  • US Flag 
09:17PM EST


 

Airport Tracker/Info


-or-


 

Live Flight TrackerFlight Track Log ✈ SKW5564 ✈ 07-Jul-2013 ✈ KORD - KCID

Flight Track Log - Related Links

Times and Time Zones

All times are in EDT time to prevent confusion due to time zone crossing. See the SKW5564 flight status page for this flight to view local times or setup timezone preferences in your user account.

Time Position Orientation Groundspeed Altitude Reporting Facility
EDT Latitude Longitude Course Direction KTS MPH feet Rate Location/Type
08:46AM 42.0000 -87.9500 270° West 164 189 1,600  Level Chicago TRACON
08:47AM 42.0000 -88.0000 270° West 182 209 3,600 2,100 Climbing Chicago TRACON
08:49AM 41.9928 -88.1603 267° West 244 281 7,400 2,280 Climbing Chicago Center
08:50AM 41.9886 -88.2572 267° West 260 299 10,000 2,040 Climbing Chicago Center
08:51AM 41.9847 -88.3678 267° West 292 336 11,700 1,740 Climbing Chicago Center
08:52AM 41.9817 -88.4867 268° West 315 362 13,600 1,560 Climbing Chicago Center
08:53AM 41.9797 -88.6100 269° West 329 379 15,000 1,560 Climbing Chicago Center
08:54AM 41.9772 -88.7419 269° West 353 406 16,800 1,260 Climbing Chicago Center
08:55AM 41.9744 -88.9067 269° West 369 425 17,600 480 Climbing Chicago Center
08:56AM 41.9703 -89.0542 268° West 395 455 17,900 180 Climbing Chicago Center
08:57AM 41.9689 -89.2075 269° West 415 478 18,000  Climbing Chicago Center
08:58AM 41.9647 -89.3658 268° West 426 490 18,000  Level Chicago Center
08:59AM 41.9614 -89.5208 268° West 422 486 18,000  Level Chicago Center
09:00AM 41.9569 -89.6753 268° West 418 481 18,000  Level Chicago Center
09:01AM 41.9511 -89.8642 268° West 423 487 18,000  Level Chicago Center
09:02AM 41.9489 -90.0164 269° West 426 490 18,000  Level Chicago Center
09:03AM 41.9433 -90.1711 267° West 421 484 18,000  Level Chicago Center
09:04AM 41.9392 -90.3247 268° West 419 482 18,000  Level Chicago Center
09:05AM 41.9339 -90.4786 267° West 417 480 18,000 -840 Level Chicago Center
09:06AM 41.9286 -90.6306 267° West 413 475 16,300 -2,100 Descending Chicago Center
09:07AM 41.9208 -90.8067 267° West 401 461 13,800 -2,160 Descending Chicago Center
09:08AM 41.9147 -90.9369 266° West 366 421 11,900 -1,440 Descending Chicago Center
09:09AM 41.9103 -91.0481 267° West 317 365 10,900 -1,500 Descending Chicago Center
09:10AM 41.9058 -91.1475 267° West 273 314 8,900 -1,860 Descending Chicago Center
09:11AM 41.9014 -91.2386 266° West 251 289 7,100 -1,680 Descending Chicago Center
09:12AM 41.8969 -91.3253 266° West 238 274 5,500 -1,200 Descending Chicago Center
09:13AM 41.8917 -91.4089 265° West 198 228 4,700 -600 Descending Chicago Center
09:14AM 41.8872 -91.4669 264° West 174 200 4,300 -660 Descending Chicago Center
09:15AM 41.8844 -91.5275 266° West 167 192 3,400 -900 Descending Chicago Center
09:16AM 41.8828 -91.5867 268° West 164 189 2,500 -840 Descending Chicago Center
09:17AM 41.8839 -91.6375 272° West 155 178 1,700 -540 Descending Chicago Center
09:18AM 41.8847 -91.6917 271° West 146 168 1,400 -300 Descending Chicago Center
09:20AM 41.8833 -91.7000 270° West  Level FlightAware Approximate
09:27AM 41.8847 -91.7108 270° West  Level Estimated